Time;durP1;ratioP1;P1;durP2;ratioP2;P2;SDS_P1;SDS_P2;PMS_P1;PMS_P2;Temp;Humidity;BMP_temperature;BMP_pressure;BME280_temperature;BME280_humidity;BME280_pressure;Samples;Min_cycle;Max_cycle;Signal;HPM_P1;HPM_P2
2023/12/16 00:01:46;;;;;;;;;;;;;;;6.74;100.00;103859.66;4982977;28;19922;-72
2023/12/16 00:04:11;;;;;;;;;;;;;;;6.75;100.00;103864.09;4981621;28;20049;-72
2023/12/16 00:06:37;;;;;;;;;;;;;;;6.77;100.00;103867.59;4979154;28;20009;-72
2023/12/16 00:09:02;;;;;;;;;;;;;;;6.69;100.00;103857.00;4980484;28;19969;-73
2023/12/16 00:11:27;;;;;;;;;;;;;;;6.71;100.00;103854.34;4982264;28;19964;-72
2023/12/16 00:13:53;;;;;;;;;;;;;;;6.69;100.00;103858.81;4967282;28;20012;-71
2023/12/16 00:16:18;;;;;;;;;;;;;;;6.70;100.00;103858.78;4983188;28;19925;-72
2023/12/16 00:18:43;;;;;;;;;;;;;;;6.70;100.00;103865.94;4981155;28;19929;-72
2023/12/16 00:21:09;;;;;;;;;;;;;;;6.69;100.00;103856.16;4984958;28;19928;-72
2023/12/16 00:23:34;;;;;;;;;;;;;;;6.68;100.00;103857.03;4970589;28;20299;-73
2023/12/16 00:25:59;;;;;;;;;;;;;;;6.69;100.00;103856.16;4974802;28;20374;-72
2023/12/16 00:28:25;;;;;;;;;;;;;;;6.68;100.00;103854.38;4972192;28;20252;-72
2023/12/16 00:30:50;;;;;;;;;;;;;;;6.62;100.00;103841.09;4985398;28;19936;-72
2023/12/16 00:33:15;;;;;;;;;;;;;;;6.57;100.00;103836.69;4967961;28;19921;-72
2023/12/16 00:35:40;;;;;;;;;;;;;;;6.52;100.00;103837.66;4983250;28;19921;-72
2023/12/16 00:38:06;;;;;;;;;;;;;;;6.65;100.00;103831.25;4979902;28;20256;-72
2023/12/16 00:40:31;;;;;;;;;;;;;;;6.60;100.00;103838.47;4986097;28;19972;-72
2023/12/16 00:42:56;;;;;;;;;;;;;;;6.55;100.00;103832.28;4986914;28;20004;-72
2023/12/16 00:45:21;;;;;;;;;;;;;;;6.58;100.00;103843.81;4972457;28;19925;-71
2023/12/16 00:47:47;;;;;;;;;;;;;;;6.58;100.00;103842.94;4987141;28;19921;-74
2023/12/16 00:50:12;;;;;;;;;;;;;;;6.65;100.00;103849.94;4988795;28;19925;-72
2023/12/16 00:52:37;;;;;;;;;;;;;;;6.61;100.00;103848.25;4985912;28;20020;-73
2023/12/16 00:55:03;;;;;;;;;;;;;;;6.59;100.00;103847.38;4985687;28;20415;-72
2023/12/16 00:57:28;;;;;;;;;;;;;;;6.62;100.00;103855.34;4992858;28;19987;-73
2023/12/16 00:59:53;;;;;;;;;;;;;;;6.60;100.00;103850.00;4985620;28;19929;-73
2023/12/16 01:02:18;;;;;;;;;;;;;;;6.64;100.00;103848.16;4987202;28;19922;-73
2023/12/16 01:04:43;;;;;;;;;;;;;;;6.62;100.00;103839.34;4988625;28;19956;-73
2023/12/16 01:07:09;;;;;;;;;;;;;;;6.59;100.00;103844.69;4987057;28;19925;-73
2023/12/16 01:09:34;;;;;;;;;;;;;;;6.58;100.00;103841.13;5004972;28;19921;-73
2023/12/16 01:11:59;;;;;;;;;;;;;;;6.64;100.00;103837.50;4989197;28;19929;-73
2023/12/16 01:14:25;;;;;;;;;;;;;;;6.61;100.00;103824.22;4992167;28;19928;-73
2023/12/16 01:16:50;;;;;;;;;;;;;;;6.59;100.00;103828.69;4992510;28;19925;-72
2023/12/16 01:19:15;;;;;;;;;;;;;;;6.58;100.00;103833.13;4989476;28;19921;-73
2023/12/16 01:21:41;;;;;;;;;;;;;;;6.62;100.00;103833.09;4991174;28;20045;-73
2023/12/16 01:24:06;;;;;;;;;;;;;;;6.70;100.00;103825.88;4986120;28;19918;-73
2023/12/16 01:26:31;;;;;;;;;;;;;;;6.69;100.00;103827.63;4992749;28;20000;-73
2023/12/16 01:28:56;;;;;;;;;;;;;;;6.69;100.00;103824.09;4991850;28;19921;-73
2023/12/16 01:31:22;;;;;;;;;;;;;;;6.60;100.00;103825.13;4976191;28;19971;-73
2023/12/16 01:33:47;;;;;;;;;;;;;;;6.56;100.00;103831.38;4975861;28;19971;-73
2023/12/16 01:36:12;;;;;;;;;;;;;;;6.65;100.00;103839.25;4988408;28;20032;-73
2023/12/16 01:38:37;;;;;;;;;;;;;;;6.57;100.00;103834.03;4985162;28;19933;-73
2023/12/16 01:41:03;;;;;;;;;;;;;;;6.60;100.00;103838.47;4974699;28;19925;-73
2023/12/16 01:43:28;;;;;;;;;;;;;;;6.69;100.00;103830.31;4985799;28;19921;-72
2023/12/16 01:45:56;;;;;;;;;;;;;;;6.55;100.00;103821.63;4986944;28;20041;-73
2023/12/16 01:48:21;;;;;;;;;;;;;;;6.63;100.00;103819.72;4968571;28;19969;-73
2023/12/16 01:50:46;;;;;;;;;;;;;;;6.58;100.00;103811.75;4990339;28;20103;-73
2023/12/16 01:53:12;;;;;;;;;;;;;;;6.51;100.00;103815.41;4989422;28;20703;-73
2023/12/16 01:55:37;;;;;;;;;;;;;;;6.47;100.00;103823.50;4973321;28;20453;-73
2023/12/16 01:58:02;;;;;;;;;;;;;;;6.41;100.00;103824.47;4977962;28;20376;-73
2023/12/16 02:00:28;;;;;;;;;;;;;;;6.39;100.00;103821.78;4969758;28;20315;-73
2023/12/16 02:02:53;;;;;;;;;;;;;;;6.44;100.00;103816.41;4986162;28;20288;-73
2023/12/16 02:05:18;;;;;;;;;;;;;;;6.50;100.00;103818.97;4973206;28;20203;-73
2023/12/16 02:07:44;;;;;;;;;;;;;;;6.37;100.00;103831.59;4970112;28;19921;-73
2023/12/16 02:10:09;;;;;;;;;;;;;;;6.35;100.00;103835.19;4982689;28;20003;-73
2023/12/16 02:12:34;;;;;;;;;;;;;;;6.21;100.00;103832.69;4969825;28;19932;-72
2023/12/16 02:15:00;;;;;;;;;;;;;;;6.25;100.00;103834.44;4980748;28;19925;-73
2023/12/16 02:17:25;;;;;;;;;;;;;;;6.17;100.00;103831.84;4970044;28;19917;-73
2023/12/16 02:19:50;;;;;;;;;;;;;;;6.20;100.00;103829.16;4972863;28;19925;-73
2023/12/16 02:22:15;;;;;;;;;;;;;;;6.20;100.00;103828.25;4971453;28;19921;-73
2023/12/16 02:24:41;;;;;;;;;;;;;;;6.17;100.00;103834.53;4989619;28;19933;-72
2023/12/16 02:27:07;;;;;;;;;;;;;;;6.20;100.00;103838.94;4989636;28;19921;-73
2023/12/16 02:29:33;;;;;;;;;;;;;;;6.18;100.00;103832.72;4987413;28;19922;-73
2023/12/16 02:31:58;;;;;;;;;;;;;;;6.06;100.00;103833.75;4979885;28;19929;-73
2023/12/16 02:34:23;;;;;;;;;;;;;;;5.96;100.00;103836.47;4995247;28;19926;-72
2023/12/16 02:36:49;;;;;;;;;;;;;;;5.94;100.00;103824.94;4978508;28;19969;-73
2023/12/16 02:39:14;;;;;;;;;;;;;;;5.91;100.00;103834.75;4989291;28;19921;-74
2023/12/16 02:41:39;;;;;;;;;;;;;;;5.78;100.00;103826.88;4991660;28;20027;-72
2023/12/16 02:44:04;;;;;;;;;;;;;;;5.81;100.00;103826.84;4985924;28;19929;-73
2023/12/16 02:46:30;;;;;;;;;;;;;;;5.70;100.00;103826.94;4978559;28;19930;-73
2023/12/16 02:48:55;;;;;;;;;;;;;;;5.70;100.00;103823.41;4979181;28;19921;-72
2023/12/16 02:51:20;;;;;;;;;;;;;;;5.70;100.00;103824.25;4982673;28;19967;-73
2023/12/16 02:53:46;;;;;;;;;;;;;;;5.59;100.00;103817.25;4979900;28;20047;-73
2023/12/16 02:56:11;;;;;;;;;;;;;;;5.52;100.00;103832.44;4973858;28;19925;-73
2023/12/16 02:58:36;;;;;;;;;;;;;;;5.66;100.00;103825.22;4984303;28;19956;-73
2023/12/16 03:01:02;;;;;;;;;;;;;;;5.67;100.00;103832.31;4968626;28;20453;-72
2023/12/16 03:03:27;;;;;;;;;;;;;;;5.73;100.00;103827.81;4982238;28;19922;-73
2023/12/16 03:05:52;;;;;;;;;;;;;;;5.60;100.00;103825.28;4982803;28;20394;-73
2023/12/16 03:08:17;;;;;;;;;;;;;;;5.53;100.00;103832.44;4981614;28;20332;-73
2023/12/16 03:10:43;;;;;;;;;;;;;;;5.50;100.00;103827.13;4983227;28;20347;-71
2023/12/16 03:13:08;;;;;;;;;;;;;;;5.39;100.00;103828.97;4984424;28;19937;-75
2023/12/16 03:15:33;;;;;;;;;;;;;;;5.33;100.00;103824.59;4972835;28;19921;-71
2023/12/16 03:17:58;;;;;;;;;;;;;;;5.37;100.00;103821.03;4985926;28;19925;-72
2023/12/16 03:20:23;;;;;;;;;;;;;;;5.39;100.00;103823.66;4983988;28;19932;-71
2023/12/16 03:22:49;;;;;;;;;;;;;;;5.33;100.00;103813.03;4984428;28;19928;-73
2023/12/16 03:25:14;;;;;;;;;;;;;;;5.35;100.00;103819.25;4989726;28;19922;-73
2023/12/16 03:27:39;;;;;;;;;;;;;;;5.39;100.00;103818.31;4986613;28;19961;-71
2023/12/16 03:30:05;;;;;;;;;;;;;;;5.37;100.00;103814.78;4982519;28;20024;-73
2023/12/16 03:32:30;;;;;;;;;;;;;;;5.31;100.00;103820.16;4984674;28;19926;-73
2023/12/16 03:34:55;;;;;;;;;;;;;;;5.42;100.00;103812.97;4985353;28;19953;-73
2023/12/16 03:37:20;;;;;;;;;;;;;;;5.27;100.00;103810.44;4982404;28;20012;-73
2023/12/16 03:39:46;;;;;;;;;;;;;;;5.27;100.00;103811.31;4985446;28;19928;-72
2023/12/16 03:42:11;;;;;;;;;;;;;;;5.35;100.00;103809.47;4987293;28;19918;-73
2023/12/16 03:44:36;;;;;;;;;;;;;;;5.29;100.00;103814.00;4985334;28;19957;-73
2023/12/16 03:47:01;;;;;;;;;;;;;;;5.24;100.00;103817.56;4986639;28;20051;-73
2023/12/16 03:49:28;;;;;;;;;;;;;;;5.34;100.00;103814.81;4972731;28;19932;-72
2023/12/16 03:51:55;;;;;;;;;;;;;;;5.36;100.00;103815.69;4985167;28;20364;-72
2023/12/16 03:54:21;;;;;;;;;;;;;;;5.60;100.00;103805.72;4985809;28;19967;-73
2023/12/16 03:56:46;;;;;;;;;;;;;;;5.40;100.00;103813.00;4988674;28;20651;-72
2023/12/16 03:59:11;;;;;;;;;;;;;;;5.33;100.00;103813.03;4982620;28;20344;-73
2023/12/16 04:01:42;;;;;;;;;;;;;;;5.52;100.00;103808.44;4984153;28;19928;-73
2023/12/16 04:04:08;;;;;;;;;;;;;;;5.43;100.00;103820.06;4969091;28;20336;-73
2023/12/16 04:06:33;;;;;;;;;;;;;;;5.33;100.00;103807.72;4996767;28;19983;-73
2023/12/16 04:08:58;;;;;;;;;;;;;;;5.32;100.00;103808.59;4985675;28;19971;-73
2023/12/16 04:11:23;;;;;;;;;;;;;;;5.33;100.00;103821.94;4987447;28;19925;-73
2023/12/16 04:13:49;;;;;;;;;;;;;;;5.31;100.00;103815.72;4986189;28;19956;-73
2023/12/16 04:16:14;;;;;;;;;;;;;;;5.39;100.00;103813.91;4973112;28;20024;-74
2023/12/16 04:18:39;;;;;;;;;;;;;;;5.59;100.00;103809.28;4969496;28;19926;-72
2023/12/16 04:21:04;;;;;;;;;;;;;;;5.46;100.00;103805.81;4984421;28;20012;-73
2023/12/16 04:23:30;;;;;;;;;;;;;;;5.46;100.00;103812.06;4968937;28;19969;-72
2023/12/16 04:25:55;;;;;;;;;;;;;;;5.45;100.00;103809.38;4999017;28;20011;-73
2023/12/16 04:28:20;;;;;;;;;;;;;;;5.53;100.00;103812.88;4988362;28;19926;-72
2023/12/16 04:30:45;;;;;;;;;;;;;;;5.58;100.00;103813.72;4971430;28;19918;-73
2023/12/16 04:33:10;;;;;;;;;;;;;;;5.61;100.00;103810.16;4968813;28;19935;-73
2023/12/16 04:35:36;;;;;;;;;;;;;;;5.62;100.00;103807.47;4971536;28;19921;-73
2023/12/16 04:38:01;;;;;;;;;;;;;;;5.67;100.00;103805.66;4983523;28;19922;-73
2023/12/16 04:40:27;;;;;;;;;;;;;;;5.71;100.00;103803.84;4980759;28;20111;-73
2023/12/16 04:42:52;;;;;;;;;;;;;;;5.72;100.00;103797.59;4980986;28;20000;-73
2023/12/16 04:45:17;;;;;;;;;;;;;;;5.76;100.00;103793.13;4985034;28;19921;-74
2023/12/16 04:47:42;;;;;;;;;;;;;;;5.79;100.00;103803.75;4967517;28;19918;-73
2023/12/16 04:50:08;;;;;;;;;;;;;;;5.81;100.00;103801.97;4984334;28;19929;-73
2023/12/16 04:52:33;;;;;;;;;;;;;;;5.78;100.00;103797.56;4967731;28;19925;-73
2023/12/16 04:54:58;;;;;;;;;;;;;;;5.76;100.00;103799.34;4981392;28;20292;-73
2023/12/16 04:57:24;;;;;;;;;;;;;;;5.80;100.00;103802.84;4982840;28;20391;-73
2023/12/16 04:59:49;;;;;;;;;;;;;;;5.74;100.00;103800.25;4967875;28;20762;-73
2023/12/16 05:02:14;;;;;;;;;;;;;;;5.64;100.00;103804.78;4982337;28;19948;-73
2023/12/16 05:04:40;;;;;;;;;;;;;;;5.56;100.00;103808.41;4966044;28;20371;-73
2023/12/16 05:07:05;;;;;;;;;;;;;;;5.61;100.00;103808.38;4970200;28;20354;-73
2023/12/16 05:09:30;;;;;;;;;;;;;;;5.54;100.00;103804.91;4989463;28;20325;-72
2023/12/16 05:11:56;;;;;;;;;;;;;;;5.51;100.00;103812.00;4986933;28;20283;-73
2023/12/16 05:14:21;;;;;;;;;;;;;;;5.52;100.00;103812.00;4982338;28;20314;-73
2023/12/16 05:16:47;;;;;;;;;;;;;;;5.47;100.00;103816.50;4987668;28;19926;-73
2023/12/16 05:19:12;;;;;;;;;;;;;;;5.49;100.00;103821.78;4967758;28;20411;-73
2023/12/16 05:21:37;;;;;;;;;;;;;;;5.42;100.00;103822.78;4990543;28;20043;-72
2023/12/16 05:24:02;;;;;;;;;;;;;;;5.38;100.00;103816.56;4985464;28;19922;-73
2023/12/16 05:26:27;;;;;;;;;;;;;;;5.29;100.00;103816.66;4986425;28;19921;-73
2023/12/16 05:28:53;;;;;;;;;;;;;;;5.23;100.00;103822.88;5001221;28;19921;-73
2023/12/16 05:31:18;;;;;;;;;;;;;;;5.19;100.00;103821.13;4974962;28;19957;-73
2023/12/16 05:33:44;;;;;;;;;;;;;;;5.19;100.00;103815.81;4967650;28;19965;-74
2023/12/16 05:36:09;;;;;;;;;;;;;;;5.24;100.00;103800.69;4976583;28;20017;-73
2023/12/16 05:38:34;;;;;;;;;;;;;;;5.28;100.00;103815.75;4976105;28;20163;-73
2023/12/16 05:41:00;;;;;;;;;;;;;;;5.24;100.00;103814.91;4989434;28;19925;-73
2023/12/16 05:43:25;;;;;;;;;;;;;;;5.25;100.00;103810.44;4999598;28;19976;-73
2023/12/16 05:45:50;;;;;;;;;;;;;;;5.21;100.00;103814.91;4986617;28;19926;-73
2023/12/16 05:48:15;;;;;;;;;;;;;;;5.10;100.00;103815.00;4987960;28;19988;-73
2023/12/16 05:50:41;;;;;;;;;;;;;;;5.09;100.00;103812.34;4982797;28;19925;-73
2023/12/16 05:53:06;;;;;;;;;;;;;;;5.10;100.00;103811.44;5003346;28;19930;-73
2023/12/16 05:55:33;;;;;;;;;;;;;;;5.09;100.00;103810.56;4967116;28;20040;-72
2023/12/16 05:57:58;;;;;;;;;;;;;;;5.18;100.00;103811.38;4989055;28;20012;-73
2023/12/16 06:00:23;;;;;;;;;;;;;;;5.18;100.00;103809.63;4982630;28;20312;-72
2023/12/16 06:02:48;;;;;;;;;;;;;;;5.24;100.00;103806.00;4986258;28;19965;-72
2023/12/16 06:05:14;;;;;;;;;;;;;;;5.35;100.00;103811.25;4986398;28;20004;-73
2023/12/16 06:07:39;;;;;;;;;;;;;;;5.23;100.00;103813.13;4988665;28;19931;-73
2023/12/16 06:10:04;;;;;;;;;;;;;;;5.10;100.00;103792.78;4990120;28;19927;-73
2023/12/16 06:12:29;;;;;;;;;;;;;;;5.35;100.00;103805.91;4982381;28;19926;-73
2023/12/16 06:14:55;;;;;;;;;;;;;;;5.30;100.00;103805.97;4983355;28;19926;-73
2023/12/16 06:17:20;;;;;;;;;;;;;;;5.15;100.00;103798.97;4989349;28;20047;-73
2023/12/16 06:19:45;;;;;;;;;;;;;;;5.08;100.00;103800.81;4989023;28;20122;-72
2023/12/16 06:22:10;;;;;;;;;;;;;;;5.06;100.00;103799.03;4988761;28;19963;-73
2023/12/16 06:24:35;;;;;;;;;;;;;;;5.21;100.00;103812.25;4986228;28;19964;-73
2023/12/16 06:27:01;;;;;;;;;;;;;;;5.13;100.00;103807.88;4987662;28;20343;-72
2023/12/16 06:29:26;;;;;;;;;;;;;;;5.00;100.00;103807.09;4985083;28;20340;-74
2023/12/16 06:31:51;;;;;;;;;;;;;;;5.06;100.00;103805.25;4989301;28;19996;-73
2023/12/16 06:34:16;;;;;;;;;;;;;;;4.97;100.00;103810.63;4984905;28;20004;-73
2023/12/16 06:36:42;;;;;;;;;;;;;;;4.90;100.00;103808.94;4983041;28;19917;-73
2023/12/16 06:39:07;;;;;;;;;;;;;;;4.84;100.00;103815.16;4989429;28;20517;-73
2023/12/16 06:41:33;;;;;;;;;;;;;;;4.90;100.00;103808.94;4983751;28;19922;-72
2023/12/16 06:43:58;;;;;;;;;;;;;;;4.98;100.00;103809.75;4984574;28;19921;-73
2023/12/16 06:46:23;;;;;;;;;;;;;;;4.97;100.00;103807.09;4985011;28;20090;-73
2023/12/16 06:48:49;;;;;;;;;;;;;;;4.84;100.00;103817.81;4983033;28;20572;-73
2023/12/16 06:51:14;;;;;;;;;;;;;;;4.98;100.00;103814.19;4971463;28;19936;-73
2023/12/16 06:53:39;;;;;;;;;;;;;;;4.95;100.00;103810.66;4970868;28;20440;-73
2023/12/16 06:56:04;;;;;;;;;;;;;;;5.02;100.00;103819.47;4983904;28;20380;-73
2023/12/16 06:58:32;;;;;;;;;;;;;;;5.00;100.00;103810.63;4976254;28;19988;-73
2023/12/16 07:00:57;;;;;;;;;;;;;;;4.97;100.00;103809.78;4985034;28;19914;-73
2023/12/16 07:03:22;;;;;;;;;;;;;;;4.96;100.00;103814.19;4974927;28;19948;-73
2023/12/16 07:05:47;;;;;;;;;;;;;;;4.86;100.00;103809.84;4984575;28;20491;-73
2023/12/16 07:08:13;;;;;;;;;;;;;;;4.86;100.00;103810.69;4985034;28;20000;-72
2023/12/16 07:10:38;;;;;;;;;;;;;;;4.85;100.00;103813.38;4989656;28;20570;-73
2023/12/16 07:13:03;;;;;;;;;;;;;;;4.87;100.00;103825.78;4966845;28;19965;-73
2023/12/16 07:15:28;;;;;;;;;;;;;;;4.83;100.00;103825.81;4985181;28;20724;-73
2023/12/16 07:17:54;;;;;;;;;;;;;;;4.77;100.00;103837.38;4986934;28;19922;-72
2023/12/16 07:20:19;;;;;;;;;;;;;;;4.78;100.00;103836.47;4986429;28;19921;-73
2023/12/16 07:22:44;;;;;;;;;;;;;;;4.81;100.00;103833.81;4986924;28;19967;-73
2023/12/16 07:25:09;;;;;;;;;;;;;;;4.86;100.00;103837.34;4993258;28;20048;-72
2023/12/16 07:27:34;;;;;;;;;;;;;;;4.78;100.00;103840.03;4980267;28;20316;-72
2023/12/16 07:30:00;;;;;;;;;;;;;;;5.10;100.00;103844.31;4984192;28;19960;-73
2023/12/16 07:32:25;;;;;;;;;;;;;;;4.97;100.00;103847.03;5004619;28;19945;-72
2023/12/16 07:34:54;;;;;;;;;;;;;;;4.85;100.00;103846.22;4982571;28;20082;-73
2023/12/16 07:37:19;;;;;;;;;;;;;;;4.91;100.00;103851.50;4980779;28;20690;-72
2023/12/16 07:39:44;;;;;;;;;;;;;;;5.00;100.00;103849.69;4992046;28;20363;-72
2023/12/16 07:42:09;;;;;;;;;;;;;;;4.93;100.00;103846.16;4988234;28;20770;-74
2023/12/16 07:44:34;;;;;;;;;;;;;;;4.92;100.00;103850.63;4990731;28;19944;-73
2023/12/16 07:47:00;;;;;;;;;;;;;;;4.93;100.00;103851.47;4989891;28;19921;-72
2023/12/16 07:49:25;;;;;;;;;;;;;;;4.92;100.00;103845.28;4987713;28;20284;-73
2023/12/16 07:51:51;;;;;;;;;;;;;;;4.78;100.00;103824.06;4991713;28;20380;-72
2023/12/16 07:54:16;;;;;;;;;;;;;;;4.99;100.00;103854.13;4986789;28;20785;-73
2023/12/16 07:56:41;;;;;;;;;;;;;;;5.10;100.00;103856.72;4990541;28;20565;-73
2023/12/16 07:59:07;;;;;;;;;;;;;;;5.00;100.00;103860.34;4976397;28;20487;-72
2023/12/16 08:01:33;;;;;;;;;;;;;;;4.92;100.00;103860.38;4985691;28;20383;-72
2023/12/16 08:03:58;;;;;;;;;;;;;;;5.01;100.00;103864.78;4989077;28;19917;-72
2023/12/16 08:06:23;;;;;;;;;;;;;;;5.05;100.00;103864.75;4985398;28;19928;-73
2023/12/16 08:08:48;;;;;;;;;;;;;;;5.09;100.00;103868.25;4982315;28;19932;-71
2023/12/16 08:11:13;;;;;;;;;;;;;;;5.08;100.00;103875.38;4977903;28;20072;-73
2023/12/16 08:13:39;;;;;;;;;;;;;;;5.15;100.00;103873.56;4967669;28;20008;-73
2023/12/16 08:16:04;;;;;;;;;;;;;;;5.29;100.00;103877.94;4982658;28;19996;-71
2023/12/16 08:18:30;;;;;;;;;;;;;;;5.32;100.00;103869.88;4993856;28;19929;-72
2023/12/16 08:20:55;;;;;;;;;;;;;;;5.37;100.00;103870.75;4969616;28;19924;-72
2023/12/16 08:23:21;;;;;;;;;;;;;;;5.33;100.00;103875.22;4981132;28;20339;-73
2023/12/16 08:25:46;;;;;;;;;;;;;;;5.50;100.00;103872.44;4984088;28;20387;-73
2023/12/16 08:28:12;;;;;;;;;;;;;;;5.53;100.00;103872.41;4997290;28;20463;-73
2023/12/16 08:30:37;;;;;;;;;;;;;;;5.45;100.00;103876.91;4983578;28;19928;-73
2023/12/16 08:33:02;;;;;;;;;;;;;;;5.55;100.00;103885.72;4972618;28;19984;-72
2023/12/16 08:35:27;;;;;;;;;;;;;;;5.65;100.00;103884.75;4967606;28;19921;-75
2023/12/16 08:37:53;;;;;;;;;;;;;;;5.60;100.00;103886.56;4982851;28;19921;-71
2023/12/16 08:40:18;;;;;;;;;;;;;;;5.68;100.00;103875.84;4983672;28;19944;-73
2023/12/16 08:42:43;;;;;;;;;;;;;;;5.73;100.00;103883.78;4981261;28;19925;-73
2023/12/16 08:45:12;;;;;;;;;;;;;;;5.60;100.00;103869.69;4983676;28;19925;-73
2023/12/16 08:47:37;;;;;;;;;;;;;;;5.89;100.00;103871.22;4986451;28;19976;-70
2023/12/16 08:50:03;;;;;;;;;;;;;;;5.94;100.00;103882.72;4988094;28;20315;-71
2023/12/16 08:52:30;;;;;;;;;;;;;;;6.11;100.00;103882.59;4984294;28;20459;-72
2023/12/16 08:54:57;;;;;;;;;;;;;;;6.09;100.00;103885.25;4988655;28;20365;-72
2023/12/16 08:57:22;;;;;;;;;;;;;;;6.15;100.00;103895.00;4984104;28;19922;-72
2023/12/16 08:59:47;;;;;;;;;;;;;;;5.98;100.00;103865.81;4987060;28;19952;-72
2023/12/16 09:02:14;;;;;;;;;;;;;;;6.22;100.00;103888.72;4987768;28;19993;-72
2023/12/16 09:04:39;;;;;;;;;;;;;;;6.33;100.00;103885.94;4991159;28;19987;-72
2023/12/16 09:07:05;;;;;;;;;;;;;;;6.34;100.00;103881.47;4987200;28;20346;-73
2023/12/16 09:09:30;;;;;;;;;;;;;;;6.48;100.00;103879.53;4971821;28;20391;-71
2023/12/16 09:11:55;;;;;;;;;;;;;;;6.54;100.00;103875.91;4989281;28;20532;-73
2023/12/16 09:14:20;;;;;;;;;;;;;;;6.54;100.00;103882.13;4972472;28;19922;-72
2023/12/16 09:16:46;;;;;;;;;;;;;;;6.69;100.00;103886.38;4979532;28;20299;-73
2023/12/16 09:19:11;;;;;;;;;;;;;;;6.75;100.00;103894.31;4983332;28;19937;-73
2023/12/16 09:21:37;;;;;;;;;;;;;;;6.81;100.00;103908.50;4972350;28;19992;-71
2023/12/16 09:24:03;;;;;;;;;;;;;;;6.85;100.00;103913.78;4985065;28;19961;-72
2023/12/16 09:26:28;;;;;;;;;;;;;;;6.86;100.00;103906.66;4987087;28;19960;-72
2023/12/16 09:28:54;;;;;;;;;;;;;;;6.96;100.00;103904.75;4984349;28;20235;-70
2023/12/16 09:31:19;;;;;;;;;;;;;;;6.97;100.00;103918.09;4990250;28;19979;-71
2023/12/16 09:33:44;;;;;;;;;;;;;;;7.01;100.00;103909.13;4984945;28;19928;-73
2023/12/16 09:36:13;;;;;;;;;;;;;;;7.04;100.00;103905.50;4989051;28;19968;-72
2023/12/16 09:38:38;;;;;;;;;;;;;;;7.01;100.00;103911.81;4984743;28;20221;-72
2023/12/16 09:41:04;;;;;;;;;;;;;;;7.03;100.00;103918.00;4984969;28;19925;-72
2023/12/16 09:43:30;;;;;;;;;;;;;;;7.10;100.00;103918.78;4984753;28;19922;-73
2023/12/16 09:45:55;;;;;;;;;;;;;;;7.14;100.00;103915.19;5001996;28;19925;-73
2023/12/16 09:48:20;;;;;;;;;;;;;;;7.17;100.00;103923.16;4983119;28;19930;-72
2023/12/16 09:50:45;;;;;;;;;;;;;;;7.20;100.00;103930.25;4970965;28;19932;-73
2023/12/16 09:53:11;;;;;;;;;;;;;;;7.20;100.00;103928.47;4983889;28;19953;-74
2023/12/16 09:55:36;;;;;;;;;;;;;;;7.32;100.00;103932.75;4986366;28;20012;-72
2023/12/16 09:58:02;;;;;;;;;;;;;;;7.39;100.00;103936.22;4968803;28;19968;-73
2023/12/16 10:00:28;;;;;;;;;;;;;;;7.30;100.00;103931.00;4982208;28;20299;-72
2023/12/16 10:02:56;;;;;;;;;;;;;;;7.31;100.00;103930.09;4986439;28;19922;-73
2023/12/16 10:05:22;;;;;;;;;;;;;;;7.31;100.00;103922.06;4972045;28;20347;-73
2023/12/16 10:07:47;;;;;;;;;;;;;;;7.31;100.00;103930.97;4984374;28;20260;-74
2023/12/16 10:10:12;;;;;;;;;;;;;;;7.38;100.00;103925.56;4984489;28;19953;-73
2023/12/16 10:12:38;;;;;;;;;;;;;;;7.44;100.00;103934.34;4986936;28;20340;-73
2023/12/16 10:15:03;;;;;;;;;;;;;;;7.44;100.00;103938.81;4984444;28;19926;-73
2023/12/16 10:17:28;;;;;;;;;;;;;;;7.44;100.00;103934.34;4986996;28;19980;-73
2023/12/16 10:19:53;;;;;;;;;;;;;;;7.35;100.00;103939.81;4979816;28;20021;-73
2023/12/16 10:22:19;;;;;;;;;;;;;;;7.43;100.00;103953.06;4988640;28;19928;-74
2023/12/16 10:24:44;;;;;;;;;;;;;;;7.40;100.00;103943.31;4979172;28;20148;-73
2023/12/16 10:27:10;;;;;;;;;;;;;;;7.40;100.00;103947.81;4986653;28;19933;-75
2023/12/16 10:29:35;;;;;;;;;;;;;;;7.38;100.00;103947.81;5000365;28;19918;-73
2023/12/16 10:32:00;;;;;;;;;;;;;;;7.34;100.00;103940.75;4969353;28;19976;-74
2023/12/16 10:34:29;;;;;;;;;;;;;;;7.33;100.00;103933.63;4983314;28;19961;-74
2023/12/16 10:37:07;;;;;;;;;;;;;;;7.46;100.00;103942.34;4988927;28;20506;-74
2023/12/16 10:39:32;;;;;;;;;;;;;;;7.44;100.00;103926.34;4984030;28;19926;-73
2023/12/16 10:41:58;;;;;;;;;;;;;;;7.50;100.00;103918.22;4983410;28;19928;-74
2023/12/16 10:44:23;;;;;;;;;;;;;;;7.49;100.00;103915.56;4984978;28;20246;-73
2023/12/16 10:46:49;;;;;;;;;;;;;;;7.50;100.00;103904.88;4991990;28;20330;-73
2023/12/16 10:49:14;;;;;;;;;;;;;;;7.54;100.00;103908.34;5000985;28;19929;-74
2023/12/16 10:51:41;;;;;;;;;;;;;;;7.59;100.00;103910.94;4984482;28;19988;-72
2023/12/16 10:54:06;;;;;;;;;;;;;;;7.64;100.00;103912.66;4984489;28;20039;-73
2023/12/16 10:56:33;;;;;;;;;;;;;;;7.72;100.00;103912.53;4986101;28;20407;-73
2023/12/16 10:59:02;;;;;;;;;;;;;;;7.73;100.00;103910.72;4984838;28;20252;-73
2023/12/16 11:01:29;;;;;;;;;;;;;;;7.77;100.00;103907.09;4985563;28;19921;-73
2023/12/16 11:04:23;;;;;;;;;;;;;;;7.80;100.00;103909.72;4970935;28;20295;-74
2023/12/16 11:06:51;;;;;;;;;;;;;;;7.89;100.00;103906.91;4971892;28;20015;-73
2023/12/16 11:09:16;;;;;;;;;;;;;;;7.92;100.00;103898.84;4987157;28;19933;-72
2023/12/16 11:11:42;;;;;;;;;;;;;;;7.94;100.00;103897.00;4988418;28;19960;-75
2023/12/16 11:14:07;;;;;;;;;;;;;;;7.90;100.00;103894.41;4972027;28;20025;-73
2023/12/16 11:16:52;;;;;;;;;;;;;;;7.78;100.00;103874.09;4979047;28;19929;-73
2023/12/16 11:19:18;;;;;;;;;;;;;;;7.91;100.00;103889.03;4970425;28;19921;-74
2023/12/16 11:21:43;;;;;;;;;;;;;;;7.95;100.00;103896.06;4981420;28;19926;-73
2023/12/16 11:24:09;;;;;;;;;;;;;;;7.89;100.00;103895.31;4985766;28;19925;-75
2023/12/16 11:26:35;;;;;;;;;;;;;;;7.85;100.00;103882.88;4985118;28;20339;-75
2023/12/16 11:29:02;;;;;;;;;;;;;;;7.96;100.00;103884.47;4984190;28;19922;-72
2023/12/16 11:31:27;;;;;;;;;;;;;;;8.01;100.00;103872.78;4961707;28;20331;-74
2023/12/16 11:33:52;;;;;;;;;;;;;;;7.97;100.00;103874.66;4982753;28;19921;-74
2023/12/16 11:36:19;;;;;;;;;;;;;;;8.03;100.00;103868.31;4972549;28;20053;-72
2023/12/16 11:38:46;;;;;;;;;;;;;;;8.05;100.00;103864.69;4986664;28;20040;-73
2023/12/16 11:41:30;;;;;;;;;;;;;;;8.03;100.00;103849.56;4984603;28;19933;-72
2023/12/16 11:43:55;;;;;;;;;;;;;;;8.04;100.00;103860.25;4984668;28;20379;-74
2023/12/16 11:46:33;;;;;;;;;;;;;;;8.03;100.00;103855.81;4984889;28;20021;-73
2023/12/16 11:49:01;;;;;;;;;;;;;;;8.05;100.00;103869.16;4980433;28;19971;-75
2023/12/16 11:51:26;;;;;;;;;;;;;;;8.08;100.00;103856.59;4979114;28;19940;-73
2023/12/16 11:53:52;;;;;;;;;;;;;;;7.89;100.00;103860.53;4981273;28;19922;-74
2023/12/16 11:56:19;;;;;;;;;;;;;;;7.94;100.00;103855.97;4979831;28;19921;-72
2023/12/16 11:58:45;;;;;;;;;;;;;;;7.90;100.00;103852.50;4981838;28;20369;-72
2023/12/16 12:01:10;;;;;;;;;;;;;;;7.89;100.00;103839.13;4966555;28;19932;-72
2023/12/16 12:03:35;;;;;;;;;;;;;;;7.81;100.00;103839.28;4983917;28;19921;-72
2023/12/16 12:06:00;;;;;;;;;;;;;;;7.72;100.00;103824.28;4983109;28;19930;-75
2023/12/16 12:08:26;;;;;;;;;;;;;;;7.71;100.00;103833.22;4979728;28;20396;-72
2023/12/16 12:10:51;;;;;;;;;;;;;;;7.70;100.00;103838.56;4979498;28;20403;-70
2023/12/16 12:13:16;;;;;;;;;;;;;;;7.72;100.00;103834.97;4984725;28;19925;-72
2023/12/16 12:15:41;;;;;;;;;;;;;;;7.73;100.00;103834.06;4984049;28;19926;-71
2023/12/16 12:18:06;;;;;;;;;;;;;;;7.75;100.00;103817.97;4982072;28;19922;-72
2023/12/16 12:20:32;;;;;;;;;;;;;;;7.75;100.00;103824.22;4982971;28;19925;-72
2023/12/16 12:22:57;;;;;;;;;;;;;;;7.80;100.00;103817.00;4986717;28;19928;-73
2023/12/16 12:25:22;;;;;;;;;;;;;;;7.73;100.00;103820.69;4973760;28;19933;-72
2023/12/16 12:27:48;;;;;;;;;;;;;;;7.59;100.00;103785.28;4982593;28;20136;-72